Time,TemperatureF,DewpointF,PressureIn,WindDirection,WindDirectionDegrees,WindSpeedMPH,WindSpeedGustMPH,Humidity,HourlyPrecipIn,Conditions,Clouds,dailyrainin,SolarRadiationWatts/m^2,SoftwareType,DateUTC
2013-05-24 00:00:00,46.2,43.3,29.99,South,188,0.0,1.0,89,0.00,,,0.00,0.0,meteohub,2013-05-24 07:00:00,
2013-05-24 00:05:00,46.0,42.8,29.99,South,187,0.0,1.0,88,0.00,,,0.00,0.0,meteohub,2013-05-24 07:05:00,
2013-05-24 00:10:00,46.2,43.3,29.99,South,187,0.0,1.0,89,0.00,,,0.00,0.0,meteohub,2013-05-24 07:10:00,
2013-05-24 00:15:00,46.4,43.5,29.99,South,187,0.0,1.0,89,0.00,,,0.00,0.0,meteohub,2013-05-24 07:15:00,
2013-05-24 00:20:00,46.4,43.5,29.99,South,187,0.0,1.0,89,0.00,,,0.00,0.0,meteohub,2013-05-24 07:20:00,
2013-05-24 00:26:00,46.4,43.2,29.99,South,187,0.0,1.0,88,0.00,,,0.00,0.0,meteohub,2013-05-24 07:26:00,
2013-05-24 00:31:00,46.6,43.7,29.99,South,187,0.0,1.0,89,0.00,,,0.00,0.0,meteohub,2013-05-24 07:31:00,
2013-05-24 00:36:00,46.4,43.5,29.99,South,187,0.0,1.0,89,0.00,,,0.00,0.0,meteohub,2013-05-24 07:36:00,
2013-05-24 00:41:00,46.2,43.7,29.99,South,188,0.0,1.0,90,0.00,,,0.00,0.0,meteohub,2013-05-24 07:41:00,
2013-05-24 00:46:00,46.0,43.5,29.99,South,188,1.0,2.0,90,0.00,,,0.00,0.0,meteohub,2013-05-24 07:46:00,
2013-05-24 00:51:00,46.0,43.5,29.99,South,188,0.0,2.0,90,0.00,,,0.00,0.0,meteohub,2013-05-24 07:51:00,
2013-05-24 00:56:00,46.2,43.3,29.99,South,188,0.0,1.0,89,0.00,,,0.00,0.0,meteohub,2013-05-24 07:56:00,
2013-05-24 01:01:00,46.0,43.2,29.99,South,188,0.0,1.0,89,0.00,,,0.00,0.0,meteohub,2013-05-24 08:01:00,
2013-05-24 01:06:00,45.7,42.8,29.99,South,188,0.0,1.0,89,0.00,,,0.00,0.0,meteohub,2013-05-24 08:06:00,
2013-05-24 01:11:00,45.7,42.8,29.99,South,188,0.0,1.0,89,0.00,,,0.00,0.0,meteohub,2013-05-24 08:11:00,
2013-05-24 01:17:00,45.9,43.0,29.98,South,188,1.0,1.0,89,0.00,,,0.00,0.0,meteohub,2013-05-24 08:17:00,
2013-05-24 01:22:00,46.2,43.3,29.99,South,188,0.0,1.0,89,0.00,,,0.00,0.0,meteohub,2013-05-24 08:22:00,
2013-05-24 01:27:00,46.9,43.7,29.98,South,188,0.0,2.0,88,0.00,,,0.00,0.0,meteohub,2013-05-24 08:27:00,
2013-05-24 01:32:00,45.7,41.7,29.98,South,188,0.0,2.0,85,0.00,,,0.00,0.0,meteohub,2013-05-24 08:32:00,
2013-05-24 01:37:00,45.9,43.0,29.98,South,188,0.0,2.0,89,0.00,,,0.00,0.0,meteohub,2013-05-24 08:37:00,
2013-05-24 01:42:00,44.4,40.8,29.98,South,188,0.0,2.0,87,0.00,,,0.00,0.0,meteohub,2013-05-24 08:42:00,
2013-05-24 01:47:00,44.1,41.0,29.98,South,188,0.0,2.0,89,0.00,,,0.00,0.0,meteohub,2013-05-24 08:47:00,
2013-05-24 01:52:00,44.2,41.7,29.98,South,188,0.0,1.0,91,0.00,,,0.00,0.0,meteohub,2013-05-24 08:52:00,
2013-05-24 01:57:00,44.6,42.1,29.98,South,188,0.0,1.0,91,0.00,,,0.00,0.0,meteohub,2013-05-24 08:57:00,
2013-05-24 02:02:00,45.0,42.6,29.98,South,188,0.0,0.0,91,0.00,,,0.00,0.0,meteohub,2013-05-24 09:02:00,
2013-05-24 02:07:00,44.4,41.4,29.98,South,188,0.0,0.0,89,0.00,,,0.00,0.0,meteohub,2013-05-24 09:07:00,
2013-05-24 02:12:00,43.7,41.0,29.98,South,188,0.0,0.0,90,0.00,,,0.00,0.0,meteohub,2013-05-24 09:12:00,
2013-05-24 02:17:00,43.7,41.2,29.98,South,188,0.0,0.0,91,0.00,,,0.00,0.0,meteohub,2013-05-24 09:17:00,
2013-05-24 02:22:00,43.7,41.2,29.98,South,188,0.0,0.0,91,0.00,,,0.00,0.0,meteohub,2013-05-24 09:22:00,
2013-05-24 02:27:00,43.9,41.7,29.98,South,188,0.0,2.0,92,0.00,,,0.00,0.0,meteohub,2013-05-24 09:27:00,
2013-05-24 02:32:00,44.6,42.8,29.98,South,188,0.0,2.0,93,0.00,,,0.00,0.0,meteohub,2013-05-24 09:32:00,
2013-05-24 02:37:00,45.1,43.3,29.98,South,188,0.0,2.0,93,0.00,,,0.00,0.0,meteohub,2013-05-24 09:37:00,
2013-05-24 02:42:00,44.8,42.8,29.98,South,188,0.0,1.0,92,0.00,,,0.00,0.0,meteohub,2013-05-24 09:42:00,
2013-05-24 02:47:00,44.6,42.4,29.98,South,188,0.0,2.0,92,0.00,,,0.00,0.0,meteohub,2013-05-24 09:47:00,
2013-05-24 02:52:00,44.8,42.8,29.98,South,188,0.0,2.0,92,0.00,,,0.00,0.0,meteohub,2013-05-24 09:52:00,
2013-05-24 02:57:00,43.7,41.2,29.98,South,188,0.0,2.0,91,0.00,,,0.00,0.0,meteohub,2013-05-24 09:57:00,
2013-05-24 03:02:00,43.3,41.2,29.98,South,188,0.0,1.0,92,0.00,,,0.00,0.0,meteohub,2013-05-24 10:02:00,
2013-05-24 03:07:00,43.7,41.9,29.98,South,188,0.0,1.0,93,0.00,,,0.00,0.0,meteohub,2013-05-24 10:07:00,
2013-05-24 03:12:00,43.0,40.8,29.98,South,188,0.0,1.0,92,0.00,,,0.00,0.0,meteohub,2013-05-24 10:12:00,
2013-05-24 03:17:00,42.3,40.3,29.98,South,188,0.0,1.0,92,0.00,,,0.00,0.0,meteohub,2013-05-24 10:17:00,
2013-05-24 03:22:00,43.3,41.7,29.98,South,188,0.0,1.0,94,0.00,,,0.00,0.0,meteohub,2013-05-24 10:22:00,
2013-05-24 03:27:00,43.9,42.3,29.98,South,188,0.0,1.0,94,0.00,,,0.00,0.0,meteohub,2013-05-24 10:27:00,
2013-05-24 03:32:00,43.5,41.7,29.98,South,188,0.0,1.0,93,0.00,,,0.00,0.0,meteohub,2013-05-24 10:32:00,
2013-05-24 03:37:00,43.5,41.9,29.98,South,188,0.0,0.0,94,0.00,,,0.00,0.0,meteohub,2013-05-24 10:37:00,
2013-05-24 03:42:00,43.9,42.1,29.98,South,188,0.0,1.0,93,0.00,,,0.00,0.0,meteohub,2013-05-24 10:42:00,
2013-05-24 03:47:00,43.7,41.9,29.98,South,188,1.0,1.0,93,0.00,,,0.00,0.0,meteohub,2013-05-24 10:47:00,
2013-05-24 03:52:00,43.9,42.1,29.97,South,188,0.0,1.0,93,0.00,,,0.00,0.0,meteohub,2013-05-24 10:52:00,
2013-05-24 03:57:00,43.9,42.1,29.97,South,188,0.0,1.0,93,0.00,,,0.00,0.0,meteohub,2013-05-24 10:57:00,
2013-05-24 04:02:00,43.5,41.7,29.97,South,188,0.0,2.0,93,0.00,,,0.00,0.0,meteohub,2013-05-24 11:02:00,
2013-05-24 04:07:00,43.3,41.5,29.97,South,188,1.0,2.0,93,0.00,,,0.00,0.0,meteohub,2013-05-24 11:07:00,
2013-05-24 04:12:00,43.0,41.2,29.97,South,188,0.0,2.0,93,0.00,,,0.00,0.0,meteohub,2013-05-24 11:12:00,
2013-05-24 04:17:00,42.8,41.0,29.97,South,188,0.0,2.0,93,0.00,,,0.00,0.0,meteohub,2013-05-24 11:17:00,
2013-05-24 04:22:00,42.8,41.0,29.97,South,188,0.0,2.0,93,0.00,,,0.00,0.0,meteohub,2013-05-24 11:22:00,
2013-05-24 04:27:00,42.6,40.8,29.97,South,188,0.0,1.0,93,0.00,,,0.00,0.0,meteohub,2013-05-24 11:27:00,
2013-05-24 04:32:00,42.6,40.8,29.97,South,188,0.0,1.0,93,0.00,,,0.00,0.0,meteohub,2013-05-24 11:32:00,
2013-05-24 04:37:00,43.0,41.4,29.97,South,188,0.0,1.0,94,0.00,,,0.00,0.0,meteohub,2013-05-24 11:37:00,
2013-05-24 04:42:00,43.2,41.4,29.97,South,188,0.0,1.0,93,0.00,,,0.00,0.0,meteohub,2013-05-24 11:42:00,
2013-05-24 04:47:00,43.2,41.4,29.97,South,188,0.0,1.0,93,0.00,,,0.00,0.0,meteohub,2013-05-24 11:47:00,
2013-05-24 04:52:00,43.0,41.2,29.97,South,188,0.0,1.0,93,0.00,,,0.00,0.0,meteohub,2013-05-24 11:52:00,
2013-05-24 04:57:00,43.0,41.2,29.97,South,188,1.0,1.0,93,0.00,,,0.00,0.0,meteohub,2013-05-24 11:57:00,
2013-05-24 05:02:00,43.0,41.2,29.97,South,188,0.0,1.0,93,0.00,,,0.00,0.0,meteohub,2013-05-24 12:02:00,
2013-05-24 05:07:00,43.5,41.9,29.97,South,188,0.0,1.0,94,0.00,,,0.00,0.0,meteohub,2013-05-24 12:07:00,
2013-05-24 05:12:00,42.4,40.3,29.97,South,188,0.0,1.0,92,0.00,,,0.00,0.0,meteohub,2013-05-24 12:12:00,
2013-05-24 05:17:00,42.3,40.5,29.98,South,188,0.0,1.0,93,0.00,,,0.00,0.0,meteohub,2013-05-24 12:17:00,
2013-05-24 05:22:00,41.9,40.3,29.98,South,188,0.0,1.0,93,0.00,,,0.00,0.0,meteohub,2013-05-24 12:22:00,
2013-05-24 05:27:00,42.6,41.0,29.98,South,188,0.0,1.0,94,0.00,,,0.00,0.0,meteohub,2013-05-24 12:27:00,
2013-05-24 05:32:00,42.6,40.8,29.98,South,188,0.0,0.0,93,0.00,,,0.00,0.0,meteohub,2013-05-24 12:32:00,
2013-05-24 05:37:00,42.6,41.0,29.98,South,188,0.0,0.0,94,0.00,,,0.00,0.0,meteohub,2013-05-24 12:37:00,
2013-05-24 05:42:00,42.1,40.3,29.99,South,188,0.0,0.0,93,0.00,,,0.00,0.0,meteohub,2013-05-24 12:42:00,
2013-05-24 05:47:00,41.9,40.3,29.99,South,188,1.0,1.0,93,0.00,,,0.00,0.0,meteohub,2013-05-24 12:47:00,
2013-05-24 05:52:00,41.9,40.3,29.99,South,188,1.0,1.0,94,0.00,,,0.00,0.0,meteohub,2013-05-24 12:52:00,
2013-05-24 05:57:00,41.4,39.7,29.99,South,188,0.0,1.0,93,0.00,,,0.00,7.0,meteohub,2013-05-24 12:57:00,
2013-05-24 06:02:00,41.2,39.7,29.99,South,188,0.0,1.0,94,0.00,,,0.00,9.0,meteohub,2013-05-24 13:02:00,
2013-05-24 06:07:00,41.4,39.9,29.99,South,188,0.0,1.0,94,0.00,,,0.00,11.0,meteohub,2013-05-24 13:07:00,
2013-05-24 06:12:00,41.7,40.3,29.99,South,188,0.0,1.0,94,0.00,,,0.00,14.0,meteohub,2013-05-24 13:12:00,
2013-05-24 06:17:00,42.8,41.5,29.99,South,188,1.0,2.0,95,0.00,,,0.00,16.0,meteohub,2013-05-24 13:17:00,
2013-05-24 06:22:00,43.2,41.9,29.99,South,188,1.0,2.0,95,0.00,,,0.00,19.0,meteohub,2013-05-24 13:22:00,
2013-05-24 06:27:00,43.5,41.9,29.99,South,188,0.0,2.0,94,0.00,,,0.00,21.0,meteohub,2013-05-24 13:27:00,
2013-05-24 06:32:00,43.5,41.9,29.99,South,188,0.0,2.0,94,0.00,,,0.00,25.0,meteohub,2013-05-24 13:32:00,
2013-05-24 06:37:00,43.5,41.9,29.99,South,188,1.0,2.0,94,0.00,,,0.00,30.0,meteohub,2013-05-24 13:37:00,
2013-05-24 06:42:00,43.7,42.1,29.99,WSW,254,0.0,2.0,94,0.00,,,0.00,39.0,meteohub,2013-05-24 13:42:00,
2013-05-24 06:47:00,44.4,42.8,29.99,West,263,0.0,2.0,94,0.00,,,0.00,49.0,meteohub,2013-05-24 13:47:00,
2013-05-24 06:52:00,45.0,43.5,29.99,West,263,0.0,2.0,94,0.00,,,0.00,100.0,meteohub,2013-05-24 13:52:00,
2013-05-24 06:57:00,45.9,44.4,29.99,WNW,286,1.0,2.0,94,0.00,,,0.00,116.0,meteohub,2013-05-24 13:57:00,
2013-05-24 07:02:00,46.4,44.6,29.99,WNW,294,2.0,3.0,93,0.00,,,0.00,130.0,meteohub,2013-05-24 14:02:00,
2013-05-24 07:07:00,47.3,45.1,30.00,WNW,298,0.0,3.0,92,0.00,,,0.00,148.0,meteohub,2013-05-24 14:07:00,
2013-05-24 07:12:00,48.2,45.7,30.00,NNW,346,1.0,3.0,91,0.00,,,0.00,165.0,meteohub,2013-05-24 14:12:00,
2013-05-24 07:17:00,48.7,46.0,30.00,NNW,346,0.0,3.0,90,0.00,,,0.00,181.0,meteohub,2013-05-24 14:17:00,
2013-05-24 07:22:00,49.1,46.2,30.00,NNW,346,0.0,3.0,89,0.00,,,0.00,195.0,meteohub,2013-05-24 14:22:00,
2013-05-24 07:27:00,50.0,47.1,30.00,NNE,26,1.0,3.0,89,0.00,,,0.00,211.0,meteohub,2013-05-24 14:27:00,
2013-05-24 07:32:00,50.5,46.8,30.00,NNE,14,2.0,3.0,86,0.00,,,0.00,225.0,meteohub,2013-05-24 14:32:00,
2013-05-24 07:37:00,50.9,47.1,30.00,North,355,3.0,3.0,86,0.00,,,0.00,241.0,meteohub,2013-05-24 14:37:00,
2013-05-24 07:42:00,51.8,47.7,30.00,NE,39,2.0,3.0,85,0.00,,,0.00,258.0,meteohub,2013-05-24 14:42:00,
2013-05-24 07:47:00,52.2,47.3,30.00,NE,39,2.0,4.0,83,0.00,,,0.00,278.0,meteohub,2013-05-24 14:47:00,
2013-05-24 07:52:00,52.7,47.5,30.00,NE,39,3.0,4.0,82,0.00,,,0.00,297.0,meteohub,2013-05-24 14:52:00,
2013-05-24 07:57:00,53.1,47.7,30.00,NE,39,0.0,4.0,81,0.00,,,0.00,316.0,meteohub,2013-05-24 14:57:00,
2013-05-24 08:02:00,53.4,47.5,30.00,NE,39,1.0,4.0,79,0.00,,,0.00,332.0,meteohub,2013-05-24 15:02:00,
2013-05-24 08:07:00,53.4,47.1,30.00,NE,39,0.0,4.0,78,0.00,,,0.00,346.0,meteohub,2013-05-24 15:07:00,
2013-05-24 08:12:00,54.3,48.0,30.00,NE,39,2.0,3.0,78,0.00,,,0.00,364.0,meteohub,2013-05-24 15:12:00,
2013-05-24 08:17:00,54.9,48.2,29.99,NE,39,2.0,2.0,77,0.00,,,0.00,381.0,meteohub,2013-05-24 15:17:00,
2013-05-24 08:22:00,54.9,47.5,29.99,NE,39,1.0,4.0,75,0.00,,,0.00,399.0,meteohub,2013-05-24 15:22:00,
2013-05-24 08:27:00,55.2,47.8,29.99,NE,39,2.0,4.0,75,0.00,,,0.00,413.0,meteohub,2013-05-24 15:27:00,
2013-05-24 08:32:00,55.8,48.0,29.99,East,83,1.0,4.0,74,0.00,,,0.00,429.0,meteohub,2013-05-24 15:32:00,
2013-05-24 08:37:00,55.8,47.3,30.00,East,82,2.0,3.0,72,0.00,,,0.00,446.0,meteohub,2013-05-24 15:37:00,
2013-05-24 08:42:00,56.5,47.7,30.00,South,190,1.0,3.0,71,0.00,,,0.00,462.0,meteohub,2013-05-24 15:42:00,
2013-05-24 08:47:00,57.0,46.9,29.99,SW,231,0.0,6.0,68,0.00,,,0.00,478.0,meteohub,2013-05-24 15:47:00,
2013-05-24 08:52:00,57.2,47.1,29.99,SW,233,0.0,6.0,68,0.00,,,0.00,492.0,meteohub,2013-05-24 15:52:00,
2013-05-24 08:57:00,57.6,47.8,29.99,WSW,254,1.0,6.0,69,0.00,,,0.00,506.0,meteohub,2013-05-24 15:57:00,
2013-05-24 09:02:00,58.1,47.3,30.00,WNW,288,4.0,5.0,66,0.00,,,0.00,522.0,meteohub,2013-05-24 16:02:00,
2013-05-24 09:07:00,58.5,47.7,29.99,WSW,255,0.0,6.0,66,0.00,,,0.00,541.0,meteohub,2013-05-24 16:07:00,
2013-05-24 09:12:00,58.5,46.9,29.99,West,276,0.0,6.0,64,0.00,,,0.00,554.0,meteohub,2013-05-24 16:12:00,
2013-05-24 09:17:00,59.4,47.8,29.99,ENE,59,2.0,6.0,64,0.00,,,0.00,568.0,meteohub,2013-05-24 16:17:00,
2013-05-24 09:22:00,60.8,47.8,29.99,SSW,212,1.0,6.0,61,0.00,,,0.00,585.0,meteohub,2013-05-24 16:22:00,
2013-05-24 09:27:00,60.6,46.8,29.99,SE,136,1.0,4.0,59,0.00,,,0.00,599.0,meteohub,2013-05-24 16:27:00,
2013-05-24 09:32:00,60.6,46.8,29.99,NW,315,0.0,4.0,59,0.00,,,0.00,612.0,meteohub,2013-05-24 16:32:00,
2013-05-24 09:37:00,60.8,46.6,29.99,West,271,0.0,4.0,58,0.00,,,0.00,626.0,meteohub,2013-05-24 16:37:00,
2013-05-24 09:42:00,61.2,47.7,29.99,West,271,5.0,6.0,60,0.00,,,0.00,642.0,meteohub,2013-05-24 16:42:00,
2013-05-24 09:47:00,60.6,47.3,29.99,SW,224,0.0,6.0,60,0.00,,,0.00,656.0,meteohub,2013-05-24 16:47:00,
2013-05-24 09:52:00,61.2,47.7,29.99,WSW,254,2.0,6.0,60,0.00,,,0.00,666.0,meteohub,2013-05-24 16:52:00,
2013-05-24 09:57:00,61.0,47.7,29.99,WNW,286,2.0,6.0,60,0.00,,,0.00,679.0,meteohub,2013-05-24 16:57:00,
2013-05-24 10:02:00,61.7,47.8,29.99,WNW,301,1.0,6.0,59,0.00,,,0.00,693.0,meteohub,2013-05-24 17:02:00,
2013-05-24 10:07:00,61.9,48.0,29.99,NW,304,0.0,6.0,59,0.00,,,0.00,701.0,meteohub,2013-05-24 17:07:00,
2013-05-24 10:12:00,62.4,47.7,29.99,WNW,284,2.0,7.0,57,0.00,,,0.00,715.0,meteohub,2013-05-24 17:12:00,
2013-05-24 10:17:00,62.6,47.5,29.99,WSW,239,3.0,7.0,56,0.00,,,0.00,733.0,meteohub,2013-05-24 17:17:00,
2013-05-24 10:22:00,63.0,46.8,29.99,SSW,200,2.0,7.0,54,0.00,,,0.00,747.0,meteohub,2013-05-24 17:22:00,
2013-05-24 10:27:00,63.9,47.1,29.99,SW,220,4.0,7.0,53,0.00,,,0.00,754.0,meteohub,2013-05-24 17:27:00,
2013-05-24 10:32:00,63.9,43.7,29.99,WSW,250,2.0,7.0,46,0.00,,,0.00,770.0,meteohub,2013-05-24 17:32:00,
2013-05-24 10:37:00,63.9,46.2,29.98,SSW,209,4.0,6.0,51,0.00,,,0.00,782.0,meteohub,2013-05-24 17:37:00,
2013-05-24 10:42:00,64.8,44.4,29.99,SW,230,4.0,7.0,46,0.00,,,0.00,791.0,meteohub,2013-05-24 17:42:00,
2013-05-24 10:47:00,66.0,45.5,29.99,SSW,207,3.0,7.0,46,0.00,,,0.00,810.0,meteohub,2013-05-24 17:47:00,
2013-05-24 10:52:00,65.7,46.2,29.99,WSW,239,2.0,7.0,48,0.00,,,0.00,816.0,meteohub,2013-05-24 17:52:00,
2013-05-24 10:57:00,66.7,45.1,29.99,South,171,2.0,7.0,44,0.00,,,0.00,624.0,meteohub,2013-05-24 17:57:00,
2013-05-24 11:02:00,67.1,43.7,29.99,SSW,197,3.0,7.0,41,0.00,,,0.00,837.0,meteohub,2013-05-24 18:02:00,
2013-05-24 11:07:00,67.3,43.9,29.99,SW,236,5.0,7.0,41,0.00,,,0.00,847.0,meteohub,2013-05-24 18:07:00,
2013-05-24 11:12:00,67.3,43.9,29.99,SW,234,4.0,9.0,41,0.00,,,0.00,856.0,meteohub,2013-05-24 18:12:00,
2013-05-24 11:17:00,67.3,43.3,29.98,North,0,1.0,9.0,40,0.00,,,0.00,863.0,meteohub,2013-05-24 18:17:00,
2013-05-24 11:22:00,66.9,43.0,29.98,SW,236,0.0,8.0,40,0.00,,,0.00,865.0,meteohub,2013-05-24 18:22:00,
2013-05-24 11:27:00,67.6,44.6,29.98,SW,229,2.0,8.0,42,0.00,,,0.00,874.0,meteohub,2013-05-24 18:27:00,
2013-05-24 11:32:00,68.2,44.1,29.98,WSW,257,1.0,8.0,40,0.00,,,0.00,884.0,meteohub,2013-05-24 18:32:00,
2013-05-24 11:37:00,68.7,43.9,29.98,SW,214,1.0,8.0,39,0.00,,,0.00,884.0,meteohub,2013-05-24 18:37:00,
2013-05-24 11:42:00,68.4,43.5,29.98,WSW,246,4.0,8.0,39,0.00,,,0.00,515.0,meteohub,2013-05-24 18:42:00,
2013-05-24 11:47:00,68.7,44.6,29.98,SSW,203,4.0,8.0,40,0.00,,,0.00,904.0,meteohub,2013-05-24 18:47:00,
2013-05-24 11:52:00,68.5,43.7,29.98,WNW,293,5.0,8.0,39,0.00,,,0.00,905.0,meteohub,2013-05-24 18:52:00,
2013-05-24 11:57:00,68.5,43.0,29.97,West,267,5.0,10.0,38,0.00,,,0.00,914.0,meteohub,2013-05-24 18:57:00,
2013-05-24 12:02:00,69.4,43.9,29.97,WSW,254,3.0,10.0,38,0.00,,,0.00,921.0,meteohub,2013-05-24 19:02:00,
2013-05-24 12:07:00,69.4,41.7,29.97,SW,221,6.0,9.0,35,0.00,,,0.00,923.0,meteohub,2013-05-24 19:07:00,
2013-05-24 12:12:00,69.4,42.4,29.97,West,262,5.0,13.0,36,0.00,,,0.00,928.0,meteohub,2013-05-24 19:12:00,
2013-05-24 12:17:00,70.0,41.4,29.97,SW,225,4.0,13.0,34,0.00,,,0.00,933.0,meteohub,2013-05-24 19:17:00,
2013-05-24 12:22:00,69.1,41.4,29.97,SW,231,5.0,12.0,35,0.00,,,0.00,935.0,meteohub,2013-05-24 19:22:00,
2013-05-24 12:27:00,68.7,41.7,29.97,West,273,4.0,14.0,36,0.00,,,0.00,939.0,meteohub,2013-05-24 19:27:00,
2013-05-24 12:32:00,69.3,41.5,29.97,SSW,196,5.0,14.0,35,0.00,,,0.00,940.0,meteohub,2013-05-24 19:32:00,
2013-05-24 12:37:00,69.4,40.3,29.97,WSW,258,4.0,14.0,33,0.00,,,0.00,944.0,meteohub,2013-05-24 19:37:00,
2013-05-24 12:42:00,69.6,42.6,29.97,WNW,287,6.0,11.0,36,0.00,,,0.00,947.0,meteohub,2013-05-24 19:42:00,
2013-05-24 12:47:00,69.1,41.4,29.97,WNW,300,10.0,11.0,35,0.00,,,0.00,949.0,meteohub,2013-05-24 19:47:00,
2013-05-24 12:52:00,69.1,40.1,29.97,West,274,11.0,12.0,33,0.00,,,0.00,951.0,meteohub,2013-05-24 19:52:00,
2013-05-24 12:57:00,69.6,41.9,29.96,SE,146,7.0,12.0,35,0.00,,,0.00,953.0,meteohub,2013-05-24 19:57:00,
2013-05-24 13:02:00,69.8,39.9,29.96,West,274,9.0,15.0,32,0.00,,,0.00,954.0,meteohub,2013-05-24 20:02:00,
2013-05-24 13:07:00,69.6,38.1,29.97,West,274,4.0,15.0,30,0.00,,,0.00,960.0,meteohub,2013-05-24 20:07:00,
2013-05-24 13:12:00,69.4,37.9,29.97,WSW,255,6.0,15.0,30,0.00,,,0.00,960.0,meteohub,2013-05-24 20:12:00,
2013-05-24 13:17:00,70.0,39.2,29.97,SW,231,7.0,13.0,31,0.00,,,0.00,962.0,meteohub,2013-05-24 20:17:00,
2013-05-24 13:22:00,69.4,41.7,29.97,West,259,2.0,12.0,35,0.00,,,0.00,953.0,meteohub,2013-05-24 20:22:00,
2013-05-24 13:27:00,69.8,40.5,29.97,SSW,194,3.0,12.0,33,0.00,,,0.00,954.0,meteohub,2013-05-24 20:27:00,
2013-05-24 13:32:00,69.8,41.4,29.97,WSW,240,4.0,12.0,34,0.00,,,0.00,953.0,meteohub,2013-05-24 20:32:00,
2013-05-24 13:37:00,69.8,39.9,29.97,WNW,290,5.0,14.0,32,0.00,,,0.00,951.0,meteohub,2013-05-24 20:37:00,
2013-05-24 13:42:00,70.5,41.2,29.97,SW,221,10.0,14.0,33,0.00,,,0.00,949.0,meteohub,2013-05-24 20:42:00,
2013-05-24 13:47:00,70.3,42.4,29.96,West,276,8.0,14.0,35,0.00,,,0.00,947.0,meteohub,2013-05-24 20:47:00,
2013-05-24 13:52:00,70.5,43.3,29.96,SSW,212,3.0,13.0,36,0.00,,,0.00,939.0,meteohub,2013-05-24 20:52:00,
2013-05-24 13:57:00,70.2,42.4,29.96,SSW,207,7.0,13.0,35,0.00,,,0.00,935.0,meteohub,2013-05-24 20:57:00,
2013-05-24 14:02:00,70.7,42.3,29.96,SW,236,1.0,13.0,34,0.00,,,0.00,932.0,meteohub,2013-05-24 21:02:00,
2013-05-24 14:07:00,70.5,42.1,29.96,SSW,197,4.0,12.0,34,0.00,,,0.00,933.0,meteohub,2013-05-24 21:07:00,
2013-05-24 14:12:00,70.3,42.4,29.96,SSW,204,8.0,10.0,35,0.00,,,0.00,925.0,meteohub,2013-05-24 21:12:00,
2013-05-24 14:17:00,70.3,42.4,29.96,SSW,209,4.0,12.0,35,0.00,,,0.00,923.0,meteohub,2013-05-24 21:17:00,
2013-05-24 14:22:00,70.0,43.0,29.96,WSW,241,0.0,12.0,36,0.00,,,0.00,914.0,meteohub,2013-05-24 21:22:00,
2013-05-24 14:27:00,70.3,43.2,29.96,SW,231,8.0,13.0,36,0.00,,,0.00,904.0,meteohub,2013-05-24 21:27:00,
2013-05-24 14:32:00,70.0,43.7,29.96,SSW,205,7.0,17.0,37,0.00,,,0.00,904.0,meteohub,2013-05-24 21:32:00,
2013-05-24 14:37:00,70.5,44.6,29.96,South,184,5.0,17.0,38,0.00,,,0.00,893.0,meteohub,2013-05-24 21:37:00,
2013-05-24 14:42:00,70.0,44.2,29.96,WSW,253,4.0,17.0,38,0.00,,,0.00,888.0,meteohub,2013-05-24 21:42:00,
2013-05-24 14:47:00,69.4,43.9,29.96,WSW,246,2.0,14.0,38,0.00,,,0.00,874.0,meteohub,2013-05-24 21:47:00,
2013-05-24 14:52:00,69.3,44.8,29.96,SSW,192,5.0,14.0,40,0.00,,,0.00,867.0,meteohub,2013-05-24 21:52:00,
2013-05-24 14:57:00,69.4,44.6,29.96,WSW,244,8.0,12.0,39,0.00,,,0.00,860.0,meteohub,2013-05-24 21:57:00,
2013-05-24 15:02:00,69.6,44.1,29.96,SSW,194,5.0,12.0,38,0.00,,,0.00,844.0,meteohub,2013-05-24 22:02:00,
2013-05-24 15:07:00,69.6,44.1,29.96,SSW,210,9.0,15.0,38,0.00,,,0.00,837.0,meteohub,2013-05-24 22:07:00,
2013-05-24 15:12:00,68.9,41.9,29.96,SSW,211,4.0,15.0,36,0.00,,,0.00,831.0,meteohub,2013-05-24 22:12:00,
2013-05-24 15:17:00,69.3,43.0,29.96,WSW,250,1.0,14.0,37,0.00,,,0.00,823.0,meteohub,2013-05-24 22:17:00,
2013-05-24 15:22:00,69.3,42.3,29.96,SSW,206,8.0,13.0,36,0.00,,,0.00,810.0,meteohub,2013-05-24 22:22:00,
2013-05-24 15:27:00,68.5,41.0,29.96,South,186,5.0,15.0,35,0.00,,,0.00,800.0,meteohub,2013-05-24 22:27:00,
2013-05-24 15:32:00,69.4,41.0,29.95,SSW,213,7.0,15.0,34,0.00,,,0.00,789.0,meteohub,2013-05-24 22:32:00,
2013-05-24 15:37:00,69.1,40.1,29.95,SSW,212,3.0,15.0,33,0.00,,,0.00,779.0,meteohub,2013-05-24 22:37:00,
2013-05-24 15:42:00,69.3,43.0,29.95,South,190,1.0,12.0,37,0.00,,,0.00,770.0,meteohub,2013-05-24 22:42:00,
2013-05-24 15:47:00,69.8,41.4,29.95,SW,219,7.0,12.0,34,0.00,,,0.00,754.0,meteohub,2013-05-24 22:47:00,
2013-05-24 15:52:00,69.3,42.3,29.95,SSW,206,4.0,12.0,36,0.00,,,0.00,747.0,meteohub,2013-05-24 22:52:00,
2013-05-24 15:57:00,68.5,43.0,29.95,SSW,198,1.0,10.0,38,0.00,,,0.00,729.0,meteohub,2013-05-24 22:57:00,
2013-05-24 16:02:00,68.9,44.1,29.95,West,275,4.0,10.0,39,0.00,,,0.00,717.0,meteohub,2013-05-24 23:02:00,
2013-05-24 16:07:00,68.2,44.1,29.95,SSW,199,6.0,12.0,40,0.00,,,0.00,703.0,meteohub,2013-05-24 23:07:00,
2013-05-24 16:12:00,68.0,43.9,29.95,SW,223,10.0,12.0,40,0.00,,,0.00,698.0,meteohub,2013-05-24 23:12:00,
2013-05-24 16:17:00,66.9,44.6,29.95,SW,230,9.0,15.0,43,0.00,,,0.00,684.0,meteohub,2013-05-24 23:17:00,
2013-05-24 16:22:00,66.9,44.2,29.95,SW,214,2.0,15.0,42,0.00,,,0.00,670.0,meteohub,2013-05-24 23:22:00,
2013-05-24 16:27:00,67.3,44.6,29.95,SSW,212,8.0,15.0,42,0.00,,,0.00,657.0,meteohub,2013-05-24 23:27:00,
2013-05-24 16:32:00,66.7,44.1,29.95,SW,216,7.0,12.0,42,0.00,,,0.00,643.0,meteohub,2013-05-24 23:32:00,
2013-05-24 16:37:00,66.7,45.1,29.95,SSW,202,3.0,12.0,44,0.00,,,0.00,624.0,meteohub,2013-05-24 23:37:00,
2013-05-24 16:42:00,66.0,44.4,29.95,SSW,209,6.0,12.0,44,0.00,,,0.00,615.0,meteohub,2013-05-24 23:42:00,
2013-05-24 16:47:00,65.1,43.7,29.96,West,261,9.0,15.0,44,0.00,,,0.00,598.0,meteohub,2013-05-24 23:47:00,
2013-05-24 16:52:00,64.9,42.3,29.96,SSW,209,3.0,15.0,42,0.00,,,0.00,582.0,meteohub,2013-05-24 23:52:00,
2013-05-24 16:57:00,64.6,43.2,29.96,SW,223,6.0,14.0,44,0.00,,,0.00,568.0,meteohub,2013-05-24 23:57:00,
2013-05-24 17:02:00,64.6,43.7,29.96,WSW,240,2.0,14.0,45,0.00,,,0.00,554.0,meteohub,2013-05-25 00:02:00,
2013-05-24 17:07:00,65.1,43.7,29.95,SW,219,6.0,13.0,44,0.00,,,0.00,541.0,meteohub,2013-05-25 00:07:00,
2013-05-24 17:12:00,65.3,43.7,29.95,SSW,211,3.0,13.0,44,0.00,,,0.00,520.0,meteohub,2013-05-25 00:12:00,
2013-05-24 17:17:00,65.3,42.6,29.95,SSW,206,2.0,13.0,42,0.00,,,0.00,512.0,meteohub,2013-05-25 00:17:00,
2013-05-24 17:22:00,65.3,43.2,29.96,SW,235,7.0,13.0,43,0.00,,,0.00,490.0,meteohub,2013-05-25 00:22:00,
2013-05-24 17:27:00,64.4,43.5,29.95,South,171,2.0,11.0,45,0.00,,,0.00,436.0,meteohub,2013-05-25 00:27:00,
2013-05-24 17:32:00,64.0,44.4,29.96,West,263,8.0,11.0,47,0.00,,,0.00,462.0,meteohub,2013-05-25 00:32:00,
2013-05-24 17:37:00,63.9,43.7,29.96,SW,225,4.0,14.0,46,0.00,,,0.00,417.0,meteohub,2013-05-25 00:37:00,
2013-05-24 17:42:00,63.5,44.4,29.96,West,281,2.0,14.0,48,0.00,,,0.00,432.0,meteohub,2013-05-25 00:42:00,
2013-05-24 17:47:00,63.3,46.6,29.96,South,177,1.0,14.0,53,0.00,,,0.00,413.0,meteohub,2013-05-25 00:47:00,
2013-05-24 17:52:00,63.0,45.9,29.96,SW,228,0.0,9.0,52,0.00,,,0.00,399.0,meteohub,2013-05-25 00:52:00,
2013-05-24 17:57:00,62.6,46.0,29.96,South,173,4.0,13.0,53,0.00,,,0.00,376.0,meteohub,2013-05-25 00:57:00,
2013-05-24 18:02:00,62.1,45.5,29.96,SSW,202,4.0,13.0,53,0.00,,,0.00,362.0,meteohub,2013-05-25 01:02:00,
2013-05-24 18:07:00,61.9,46.0,29.96,SW,216,2.0,10.0,55,0.00,,,0.00,339.0,meteohub,2013-05-25 01:07:00,
2013-05-24 18:12:00,61.5,47.1,29.96,SW,219,9.0,9.0,58,0.00,,,0.00,322.0,meteohub,2013-05-25 01:12:00,
2013-05-24 18:17:00,61.2,47.3,29.96,SSW,202,4.0,10.0,59,0.00,,,0.00,313.0,meteohub,2013-05-25 01:17:00,
2013-05-24 18:22:00,60.8,46.0,29.96,SSE,165,8.0,10.0,57,0.00,,,0.00,301.0,meteohub,2013-05-25 01:22:00,
2013-05-24 18:27:00,60.4,45.3,29.96,SW,217,10.0,12.0,56,0.00,,,0.00,281.0,meteohub,2013-05-25 01:27:00,
2013-05-24 18:32:00,59.9,45.7,29.96,West,279,1.0,13.0,58,0.00,,,0.00,265.0,meteohub,2013-05-25 01:32:00,
2013-05-24 18:37:00,59.7,45.5,29.96,WSW,257,1.0,13.0,58,0.00,,,0.00,248.0,meteohub,2013-05-25 01:37:00,
2013-05-24 18:42:00,59.2,45.5,29.96,SW,222,6.0,13.0,59,0.00,,,0.00,229.0,meteohub,2013-05-25 01:42:00,
2013-05-24 18:47:00,58.6,45.9,29.96,SW,232,0.0,10.0,61,0.00,,,0.00,211.0,meteohub,2013-05-25 01:47:00,
2013-05-24 18:52:00,58.5,46.0,29.96,South,180,3.0,10.0,62,0.00,,,0.00,190.0,meteohub,2013-05-25 01:52:00,
2013-05-24 18:57:00,58.1,45.7,29.96,SW,224,1.0,11.0,62,0.00,,,0.00,174.0,meteohub,2013-05-25 01:57:00,
2013-05-24 19:02:00,57.6,46.4,29.96,SW,232,1.0,11.0,65,0.00,,,0.00,156.0,meteohub,2013-05-25 02:02:00,
2013-05-24 19:07:00,57.6,45.9,29.96,SSW,209,4.0,11.0,64,0.00,,,0.00,139.0,meteohub,2013-05-25 02:07:00,
2013-05-24 19:12:00,57.4,45.7,29.96,SSW,204,7.0,10.0,64,0.00,,,0.00,121.0,meteohub,2013-05-25 02:12:00,
2013-05-24 19:17:00,56.8,45.7,29.96,SW,216,3.0,8.0,65,0.00,,,0.00,102.0,meteohub,2013-05-25 02:17:00,
2013-05-24 19:22:00,56.7,45.9,29.96,SW,219,5.0,10.0,66,0.00,,,0.00,90.0,meteohub,2013-05-25 02:22:00,
2013-05-24 19:27:00,56.5,46.0,29.96,SW,215,5.0,11.0,67,0.00,,,0.00,74.0,meteohub,2013-05-25 02:27:00,
2013-05-24 19:32:00,56.1,46.0,29.96,South,170,7.0,11.0,68,0.00,,,0.00,63.0,meteohub,2013-05-25 02:32:00,
2013-05-24 19:37:00,55.8,46.2,29.97,SSW,212,6.0,11.0,69,0.00,,,0.00,47.0,meteohub,2013-05-25 02:37:00,
2013-05-24 19:42:00,55.6,46.0,29.97,SW,225,8.0,11.0,69,0.00,,,0.00,30.0,meteohub,2013-05-25 02:42:00,
2013-05-24 19:47:00,55.2,46.0,29.97,SW,221,7.0,11.0,70,0.00,,,0.00,23.0,meteohub,2013-05-25 02:47:00,
2013-05-24 19:52:00,54.9,45.7,29.97,SW,219,4.0,11.0,70,0.00,,,0.00,21.0,meteohub,2013-05-25 02:52:00,
2013-05-24 19:57:00,54.7,45.9,29.97,SW,223,5.0,11.0,71,0.00,,,0.00,14.0,meteohub,2013-05-25 02:57:00,
2013-05-24 20:02:00,54.3,45.5,29.97,South,189,3.0,10.0,71,0.00,,,0.00,12.0,meteohub,2013-05-25 03:02:00,
2013-05-24 20:07:00,54.1,45.7,29.97,SW,223,2.0,10.0,72,0.00,,,0.00,9.0,meteohub,2013-05-25 03:07:00,
2013-05-24 20:12:00,54.0,45.9,29.97,SW,229,6.0,10.0,73,0.00,,,0.00,7.0,meteohub,2013-05-25 03:12:00,
2013-05-24 20:17:00,53.8,46.0,29.97,SSW,202,3.0,12.0,74,0.00,,,0.00,5.0,meteohub,2013-05-25 03:17:00,
2013-05-24 20:22:00,53.4,45.7,29.97,SSW,198,7.0,12.0,74,0.00,,,0.00,0.0,meteohub,2013-05-25 03:22:00,
2013-05-24 20:27:00,53.2,45.7,29.97,SW,216,2.0,10.0,75,0.00,,,0.00,0.0,meteohub,2013-05-25 03:27:00,
2013-05-24 20:32:00,53.1,45.5,29.97,SSE,167,4.0,10.0,75,0.00,,,0.00,0.0,meteohub,2013-05-25 03:32:00,
2013-05-24 20:37:00,52.7,45.5,29.97,SSW,194,7.0,10.0,76,0.00,,,0.00,0.0,meteohub,2013-05-25 03:37:00,
2013-05-24 20:42:00,52.5,45.7,29.97,South,178,3.0,9.0,77,0.00,,,0.00,0.0,meteohub,2013-05-25 03:42:00,
2013-05-24 20:47:00,52.3,45.5,29.97,SW,229,6.0,9.0,77,0.00,,,0.00,0.0,meteohub,2013-05-25 03:47:00,
2013-05-24 20:52:00,52.3,45.5,29.97,SSW,211,4.0,9.0,77,0.00,,,0.00,0.0,meteohub,2013-05-25 03:52:00,
2013-05-24 20:57:00,52.0,45.1,29.97,South,184,1.0,10.0,77,0.00,,,0.00,0.0,meteohub,2013-05-25 03:57:00,
2013-05-24 21:01:00,51.8,45.3,29.98,SW,222,5.0,10.0,78,0.00,,,0.00,0.0,meteohub,2013-05-25 04:01:00,
2013-05-24 21:02:00,51.8,45.3,29.98,SSW,202,3.0,10.0,78,0.00,,,0.00,0.0,meteohub,2013-05-25 04:02:00,
2013-05-24 21:07:00,51.8,45.3,29.98,South,181,1.0,9.0,78,0.00,,,0.00,0.0,meteohub,2013-05-25 04:07:00,
2013-05-24 21:12:00,51.6,45.1,29.98,SW,217,1.0,9.0,78,0.00,,,0.00,0.0,meteohub,2013-05-25 04:12:00,
2013-05-24 21:17:00,51.6,45.1,29.98,SW,217,6.0,9.0,78,0.00,,,0.00,0.0,meteohub,2013-05-25 04:17:00,
2013-05-24 21:22:00,51.4,45.3,29.98,SSE,167,2.0,9.0,79,0.00,,,0.00,0.0,meteohub,2013-05-25 04:22:00,
2013-05-24 21:27:00,51.3,45.1,29.98,SSW,208,3.0,8.0,79,0.00,,,0.00,0.0,meteohub,2013-05-25 04:27:00,
2013-05-24 21:32:00,51.1,45.0,29.98,SW,233,8.0,8.0,79,0.00,,,0.00,0.0,meteohub,2013-05-25 04:32:00,
2013-05-24 21:37:00,51.3,45.5,29.98,SSW,203,3.0,12.0,80,0.00,,,0.00,0.0,meteohub,2013-05-25 04:37:00,
2013-05-24 21:43:00,51.1,45.3,29.98,South,191,4.0,12.0,80,0.00,,,0.00,0.0,meteohub,2013-05-25 04:43:00,
2013-05-24 21:48:00,51.1,45.3,29.98,SSW,205,3.0,12.0,80,0.00,,,0.00,0.0,meteohub,2013-05-25 04:48:00,
2013-05-24 21:53:00,51.3,45.5,29.98,WSW,252,1.0,9.0,80,0.00,,,0.00,0.0,meteohub,2013-05-25 04:53:00,
2013-05-24 21:58:00,51.1,45.3,29.98,SSW,192,1.0,10.0,80,0.00,,,0.00,0.0,meteohub,2013-05-25 04:58:00,
2013-05-24 22:03:00,50.9,45.5,29.98,SSW,201,3.0,10.0,81,0.00,,,0.00,0.0,meteohub,2013-05-25 05:03:00,
2013-05-24 22:08:00,50.9,45.5,29.99,SW,221,2.0,10.0,81,0.00,,,0.00,0.0,meteohub,2013-05-25 05:08:00,
2013-05-24 22:13:00,50.7,45.3,29.99,South,186,9.0,9.0,81,0.00,,,0.00,0.0,meteohub,2013-05-25 05:13:00,
2013-05-24 22:18:00,50.9,45.5,29.99,SSW,210,7.0,9.0,81,0.00,,,0.00,0.0,meteohub,2013-05-25 05:18:00,
2013-05-24 22:23:00,50.7,45.7,29.99,SSW,205,3.0,11.0,82,0.00,,,0.00,0.0,meteohub,2013-05-25 05:23:00,
2013-05-24 22:28:00,50.7,45.7,29.99,SW,215,3.0,11.0,82,0.00,,,0.00,0.0,meteohub,2013-05-25 05:28:00,
2013-05-24 22:34:00,50.9,45.9,29.99,SW,221,1.0,8.0,82,0.00,,,0.00,0.0,meteohub,2013-05-25 05:34:00,
2013-05-24 22:39:00,50.9,45.9,29.99,SW,231,3.0,11.0,82,0.00,,,0.00,0.0,meteohub,2013-05-25 05:39:00,
2013-05-24 22:44:00,49.9,45.0,29.98,SW,217,5.0,12.0,82,0.00,,,0.00,0,weatherlink.com 1.10,2013-05-25 05:44:00,
2013-05-24 22:49:00,51.1,46.0,29.99,SW,219,9.0,11.0,82,0.00,,,0.00,0.0,meteohub,2013-05-25 05:49:00,
2013-05-24 22:54:00,51.1,45.7,29.99,SSW,205,7.0,13.0,81,0.00,,,0.00,0.0,meteohub,2013-05-25 05:54:00,
2013-05-24 22:59:00,51.1,45.7,29.99,South,188,7.0,13.0,81,0.00,,,0.00,0.0,meteohub,2013-05-25 05:59:00,
2013-05-24 23:04:00,50.9,45.5,29.99,WSW,245,4.0,13.0,81,0.00,,,0.00,0.0,meteohub,2013-05-25 06:04:00,
2013-05-24 23:09:00,50.9,45.5,29.99,SW,224,9.0,12.0,81,0.00,,,0.00,0.0,meteohub,2013-05-25 06:09:00,
2013-05-24 23:14:00,51.1,45.7,29.99,SSW,209,5.0,12.0,81,0.00,,,0.00,0.0,meteohub,2013-05-25 06:14:00,
2013-05-24 23:19:00,50.9,45.5,29.99,SW,230,7.0,14.0,81,0.00,,,0.00,0.0,meteohub,2013-05-25 06:19:00,
2013-05-24 23:24:00,50.9,45.5,29.99,SW,214,1.0,14.0,81,0.00,,,0.00,0.0,meteohub,2013-05-25 06:24:00,
2013-05-24 23:30:00,50.7,45.3,29.99,SSW,202,2.0,14.0,81,0.00,,,0.00,0.0,meteohub,2013-05-25 06:30:00,
2013-05-24 23:35:00,50.7,45.7,29.99,SW,214,7.0,10.0,82,0.00,,,0.00,0.0,meteohub,2013-05-25 06:35:00,
2013-05-24 23:40:00,50.7,45.7,29.99,SSW,204,7.0,10.0,82,0.00,,,0.00,0.0,meteohub,2013-05-25 06:40:00,
2013-05-24 23:45:00,50.7,45.7,29.99,South,176,2.0,12.0,82,0.00,,,0.00,0.0,meteohub,2013-05-25 06:45:00,
2013-05-24 23:50:00,50.7,45.7,29.99,SW,223,4.0,11.0,82,0.00,,,0.00,0.0,meteohub,2013-05-25 06:50:00,
2013-05-24 23:55:00,50.7,45.7,29.99,SW,216,1.0,12.0,82,0.00,,,0.00,0.0,meteohub,2013-05-25 06:55:00,